sensor_id;sensor_type;location;lat;lon;timestamp;pressure;altitude;pressure_sealevel;temperature;humidity
5609;BME280;2826;51.354;9.588;2023-09-18T00:00:28;97645.47;;;21.68;74.05
5609;BME280;2826;51.354;9.588;2023-09-18T00:02:58;97643.81;;;21.67;74.04
5609;BME280;2826;51.354;9.588;2023-09-18T00:05:28;97638.00;;;21.63;74.23
5609;BME280;2826;51.354;9.588;2023-09-18T00:07:56;97637.31;;;21.61;74.46
5609;BME280;2826;51.354;9.588;2023-09-18T00:10:22;97641.75;;;21.61;74.31
5609;BME280;2826;51.354;9.588;2023-09-18T00:12:50;97640.94;;;21.60;74.15
5609;BME280;2826;51.354;9.588;2023-09-18T00:15:16;97631.38;;;21.59;74.32
5609;BME280;2826;51.354;9.588;2023-09-18T00:17:43;97628.88;;;21.58;74.19
5609;BME280;2826;51.354;9.588;2023-09-18T00:20:10;97621.09;;;21.56;74.42
5609;BME280;2826;51.354;9.588;2023-09-18T00:22:39;97618.44;;;21.56;74.53
5609;BME280;2826;51.354;9.588;2023-09-18T00:25:07;97622.06;;;21.55;74.43
5609;BME280;2826;51.354;9.588;2023-09-18T00:27:33;97620.25;;;21.56;74.74
5609;BME280;2826;51.354;9.588;2023-09-18T00:30:01;97614.44;;;21.52;74.63
5609;BME280;2826;51.354;9.588;2023-09-18T00:32:28;97605.00;;;21.49;74.74
5609;BME280;2826;51.354;9.588;2023-09-18T00:34:55;97598.22;;;21.47;74.58
5609;BME280;2826;51.354;9.588;2023-09-18T00:37:21;97595.88;;;21.44;74.81
5609;BME280;2826;51.354;9.588;2023-09-18T00:39:49;97590.72;;;21.42;75.00
5609;BME280;2826;51.354;9.588;2023-09-18T00:42:18;97586.72;;;21.38;74.86
5609;BME280;2826;51.354;9.588;2023-09-18T00:44:48;97589.66;;;21.35;75.36
5609;BME280;2826;51.354;9.588;2023-09-18T00:47:15;97582.88;;;21.32;74.96
5609;BME280;2826;51.354;9.588;2023-09-18T00:49:45;97579.53;;;21.30;75.33
5609;BME280;2826;51.354;9.588;2023-09-18T00:52:13;97574.41;;;21.28;75.63
5609;BME280;2826;51.354;9.588;2023-09-18T00:54:40;97566.63;;;21.27;75.89
5609;BME280;2826;51.354;9.588;2023-09-18T00:57:08;97562.34;;;21.26;75.89
5609;BME280;2826;51.354;9.588;2023-09-18T00:59:37;97564.16;;;21.25;75.99
5609;BME280;2826;51.354;9.588;2023-09-18T01:02:04;97561.81;;;21.22;76.79
5609;BME280;2826;51.354;9.588;2023-09-18T01:04:32;97550.41;;;21.22;76.39
5609;BME280;2826;51.354;9.588;2023-09-18T01:06:59;97545.16;;;21.22;76.70
5609;BME280;2826;51.354;9.588;2023-09-18T01:09:29;97543.34;;;21.22;76.47
5609;BME280;2826;51.354;9.588;2023-09-18T01:12:02;97546.25;;;21.19;76.85
5609;BME280;2826;51.354;9.588;2023-09-18T01:14:33;97525.91;;;21.11;76.95
5609;BME280;2826;51.354;9.588;2023-09-18T01:17:05;97530.03;;;21.24;76.73
5609;BME280;2826;51.354;9.588;2023-09-18T01:19:37;97525.53;;;21.34;76.30
5609;BME280;2826;51.354;9.588;2023-09-18T01:22:05;97525.34;;;21.46;75.86
5609;BME280;2826;51.354;9.588;2023-09-18T01:24:35;97526.97;;;21.57;75.40
5609;BME280;2826;51.354;9.588;2023-09-18T01:27:02;97513.84;;;21.65;75.50
5609;BME280;2826;51.354;9.588;2023-09-18T01:29:29;97513.84;;;21.75;74.88
5609;BME280;2826;51.354;9.588;2023-09-18T01:31:56;97509.78;;;21.80;74.84
5609;BME280;2826;51.354;9.588;2023-09-18T01:34:26;97506.66;;;21.85;74.45
5609;BME280;2826;51.354;9.588;2023-09-18T01:36:57;97517.41;;;21.84;74.13
5609;BME280;2826;51.354;9.588;2023-09-18T01:39:25;97502.38;;;21.84;73.96
5609;BME280;2826;51.354;9.588;2023-09-18T01:41:58;97497.72;;;21.78;74.19
5609;BME280;2826;51.354;9.588;2023-09-18T01:44:25;97502.59;;;21.73;74.56
5609;BME280;2826;51.354;9.588;2023-09-18T01:46:52;97486.94;;;21.61;74.24
5609;BME280;2826;51.354;9.588;2023-09-18T01:49:26;97461.38;;;21.44;74.54
5609;BME280;2826;51.354;9.588;2023-09-18T01:51:53;97496.00;;;21.59;74.66
5609;BME280;2826;51.354;9.588;2023-09-18T01:54:20;97501.78;;;21.62;74.84
5609;BME280;2826;51.354;9.588;2023-09-18T01:56:47;97495.69;;;21.62;74.79
5609;BME280;2826;51.354;9.588;2023-09-18T01:59:15;97493.88;;;21.62;74.41
5609;BME280;2826;51.354;9.588;2023-09-18T02:01:41;97499.28;;;21.61;74.33
5609;BME280;2826;51.354;9.588;2023-09-18T02:04:08;97495.31;;;21.57;74.21
5609;BME280;2826;51.354;9.588;2023-09-18T02:06:35;97500.34;;;21.50;74.54
5609;BME280;2826;51.354;9.588;2023-09-18T02:09:02;97498.44;;;21.42;74.45
5609;BME280;2826;51.354;9.588;2023-09-18T02:11:29;97495.31;;;21.28;75.04
5609;BME280;2826;51.354;9.588;2023-09-18T02:13:55;97502.28;;;21.20;75.59
5609;BME280;2826;51.354;9.588;2023-09-18T02:16:24;97496.31;;;21.18;75.95
5609;BME280;2826;51.354;9.588;2023-09-18T02:18:54;97493.25;;;21.22;76.14
5609;BME280;2826;51.354;9.588;2023-09-18T02:21:22;97491.00;;;21.27;76.58
5609;BME280;2826;51.354;9.588;2023-09-18T02:23:49;97488.72;;;21.43;76.03
5609;BME280;2826;51.354;9.588;2023-09-18T02:26:15;97484.16;;;21.63;75.62
5609;BME280;2826;51.354;9.588;2023-09-18T02:28:42;97463.19;;;21.61;75.16
5609;BME280;2826;51.354;9.588;2023-09-18T02:31:09;97490.41;;;21.90;74.80
5609;BME280;2826;51.354;9.588;2023-09-18T02:33:37;97488.72;;;22.07;74.09
5609;BME280;2826;51.354;9.588;2023-09-18T02:36:04;97483.31;;;22.27;72.78
5609;BME280;2826;51.354;9.588;2023-09-18T02:38:30;97478.41;;;22.32;72.64
5609;BME280;2826;51.354;9.588;2023-09-18T02:40:57;97480.34;;;22.30;72.09
5609;BME280;2826;51.354;9.588;2023-09-18T02:43:24;97481.75;;;22.16;72.82
5609;BME280;2826;51.354;9.588;2023-09-18T02:45:50;97459.25;;;21.93;73.02
5609;BME280;2826;51.354;9.588;2023-09-18T02:48:18;97475.09;;;21.93;73.29
5609;BME280;2826;51.354;9.588;2023-09-18T02:50:46;97463.50;;;21.86;73.50
5609;BME280;2826;51.354;9.588;2023-09-18T02:53:17;97453.66;;;21.78;73.89
5609;BME280;2826;51.354;9.588;2023-09-18T02:55:44;97444.38;;;21.74;74.41
5609;BME280;2826;51.354;9.588;2023-09-18T02:58:11;97444.94;;;21.78;74.07
5609;BME280;2826;51.354;9.588;2023-09-18T03:00:41;97438.53;;;21.80;74.13
5609;BME280;2826;51.354;9.588;2023-09-18T03:03:09;97435.88;;;21.80;74.24
5609;BME280;2826;51.354;9.588;2023-09-18T03:05:36;97427.69;;;21.84;74.15
5609;BME280;2826;51.354;9.588;2023-09-18T03:08:04;97431.97;;;21.85;74.04
5609;BME280;2826;51.354;9.588;2023-09-18T03:10:32;97426.19;;;21.81;74.13
5609;BME280;2826;51.354;9.588;2023-09-18T03:13:00;97424.34;;;21.82;73.92
5609;BME280;2826;51.354;9.588;2023-09-18T03:15:28;97419.53;;;21.77;74.05
5609;BME280;2826;51.354;9.588;2023-09-18T03:17:54;97413.16;;;21.70;74.55
5609;BME280;2826;51.354;9.588;2023-09-18T03:20:22;97408.66;;;21.62;74.77
5609;BME280;2826;51.354;9.588;2023-09-18T03:22:49;97397.88;;;21.55;74.75
5609;BME280;2826;51.354;9.588;2023-09-18T03:25:17;97387.22;;;21.47;75.09
5609;BME280;2826;51.354;9.588;2023-09-18T03:27:44;97385.50;;;21.37;75.45
5609;BME280;2826;51.354;9.588;2023-09-18T03:30:11;97383.44;;;21.31;75.45
5609;BME280;2826;51.354;9.588;2023-09-18T03:32:41;97376.97;;;21.25;75.58
5609;BME280;2826;51.354;9.588;2023-09-18T03:35:08;97376.75;;;21.19;76.01
5609;BME280;2826;51.354;9.588;2023-09-18T03:37:41;97377.03;;;21.15;76.16
5609;BME280;2826;51.354;9.588;2023-09-18T03:40:08;97371.22;;;21.12;76.52
5609;BME280;2826;51.354;9.588;2023-09-18T03:42:36;97383.84;;;21.08;77.01
5609;BME280;2826;51.354;9.588;2023-09-18T03:45:06;97364.72;;;21.06;76.98
5609;BME280;2826;51.354;9.588;2023-09-18T03:47:34;97358.47;;;21.07;77.32
5609;BME280;2826;51.354;9.588;2023-09-18T03:50:01;97358.06;;;21.12;77.26
5609;BME280;2826;51.354;9.588;2023-09-18T03:52:28;97360.75;;;21.20;77.02
5609;BME280;2826;51.354;9.588;2023-09-18T03:54:55;97366.09;;;21.28;77.09
5609;BME280;2826;51.354;9.588;2023-09-18T03:57:22;97368.31;;;21.33;76.49
5609;BME280;2826;51.354;9.588;2023-09-18T03:59:50;97340.88;;;21.26;76.50
5609;BME280;2826;51.354;9.588;2023-09-18T04:02:16;97360.94;;;21.55;76.08
5609;BME280;2826;51.354;9.588;2023-09-18T04:04:43;97358.06;;;21.66;75.41
5609;BME280;2826;51.354;9.588;2023-09-18T04:07:10;97367.22;;;21.72;75.28
5609;BME280;2826;51.354;9.588;2023-09-18T04:09:36;97382.34;;;21.88;74.34
5609;BME280;2826;51.354;9.588;2023-09-18T04:12:05;97397.03;;;22.09;73.73
5609;BME280;2826;51.354;9.588;2023-09-18T04:14:32;97401.91;;;22.22;73.44
5609;BME280;2826;51.354;9.588;2023-09-18T04:17:00;97390.25;;;22.33;72.37
5609;BME280;2826;51.354;9.588;2023-09-18T04:19:27;97364.34;;;22.37;72.01
5609;BME280;2826;51.354;9.588;2023-09-18T04:21:54;97375.31;;;22.42;71.84
5609;BME280;2826;51.354;9.588;2023-09-18T04:24:21;97374.47;;;22.41;71.71
5609;BME280;2826;51.354;9.588;2023-09-18T04:26:48;97376.44;;;22.39;71.17
5609;BME280;2826;51.354;9.588;2023-09-18T04:29:16;97378.41;;;22.37;71.64
5609;BME280;2826;51.354;9.588;2023-09-18T04:31:43;97364.69;;;22.34;71.82
5609;BME280;2826;51.354;9.588;2023-09-18T04:34:11;97358.88;;;22.30;72.10
5609;BME280;2826;51.354;9.588;2023-09-18T04:36:38;97352.78;;;22.29;71.93
5609;BME280;2826;51.354;9.588;2023-09-18T04:39:06;97343.34;;;22.27;72.15
5609;BME280;2826;51.354;9.588;2023-09-18T04:41:34;97339.72;;;22.28;71.71
5609;BME280;2826;51.354;9.588;2023-09-18T04:44:03;97342.22;;;22.29;71.71
5609;BME280;2826;51.354;9.588;2023-09-18T04:46:31;97335.50;;;22.35;71.69
5609;BME280;2826;51.354;9.588;2023-09-18T04:48:58;97330.56;;;22.40;71.09
5609;BME280;2826;51.354;9.588;2023-09-18T04:51:26;97324.28;;;22.41;71.20
5609;BME280;2826;51.354;9.588;2023-09-18T04:53:52;97310.78;;;22.44;70.95
5609;BME280;2826;51.354;9.588;2023-09-18T04:56:20;97312.13;;;22.49;70.46
5609;BME280;2826;51.354;9.588;2023-09-18T04:58:47;97298.56;;;22.52;70.37
5609;BME280;2826;51.354;9.588;2023-09-18T05:01:14;97305.38;;;22.54;70.50
5609;BME280;2826;51.354;9.588;2023-09-18T05:03:41;97300.78;;;22.56;70.14
5609;BME280;2826;51.354;9.588;2023-09-18T05:06:07;97302.59;;;22.56;70.25
5609;BME280;2826;51.354;9.588;2023-09-18T05:08:35;97290.22;;;22.56;70.02
5609;BME280;2826;51.354;9.588;2023-09-18T05:11:02;97281.78;;;22.61;70.04
5609;BME280;2826;51.354;9.588;2023-09-18T05:13:28;97278.50;;;22.59;69.95
5609;BME280;2826;51.354;9.588;2023-09-18T05:15:55;97280.97;;;22.61;69.87
5609;BME280;2826;51.354;9.588;2023-09-18T05:18:23;97270.91;;;22.64;69.62
5609;BME280;2826;51.354;9.588;2023-09-18T05:20:50;97263.81;;;22.65;69.66
5609;BME280;2826;51.354;9.588;2023-09-18T05:23:16;97261.69;;;22.68;69.67
5609;BME280;2826;51.354;9.588;2023-09-18T05:25:45;97264.97;;;22.70;69.46
5609;BME280;2826;51.354;9.588;2023-09-18T05:28:11;97260.53;;;22.71;69.25
5609;BME280;2826;51.354;9.588;2023-09-18T05:30:38;97264.34;;;22.77;68.84
5609;BME280;2826;51.354;9.588;2023-09-18T05:33:05;97255.09;;;22.73;68.76
5609;BME280;2826;51.354;9.588;2023-09-18T05:35:32;97255.75;;;22.83;68.72
5609;BME280;2826;51.354;9.588;2023-09-18T05:37:59;97245.88;;;22.85;68.39
5609;BME280;2826;51.354;9.588;2023-09-18T05:40:26;97230.81;;;22.69;68.44
5609;BME280;2826;51.354;9.588;2023-09-18T05:42:55;97246.69;;;22.94;67.89
5609;BME280;2826;51.354;9.588;2023-09-18T05:45:22;97251.00;;;22.95;67.69
5609;BME280;2826;51.354;9.588;2023-09-18T05:47:50;97236.63;;;22.89;67.57
5609;BME280;2826;51.354;9.588;2023-09-18T05:50:18;97248.38;;;23.03;67.41
5609;BME280;2826;51.354;9.588;2023-09-18T05:52:46;97238.31;;;23.07;66.84
5609;BME280;2826;51.354;9.588;2023-09-18T05:55:14;97227.38;;;23.10;66.67
5609;BME280;2826;51.354;9.588;2023-09-18T05:57:41;97221.63;;;23.06;66.79
5609;BME280;2826;51.354;9.588;2023-09-18T06:00:10;97217.66;;;23.10;66.70
5609;BME280;2826;51.354;9.588;2023-09-18T06:02:38;97216.81;;;23.10;66.55
5609;BME280;2826;51.354;9.588;2023-09-18T06:05:06;97223.94;;;23.09;66.45
5609;BME280;2826;51.354;9.588;2023-09-18T06:07:33;97218.81;;;23.08;66.32
5609;BME280;2826;51.354;9.588;2023-09-18T06:09:59;97225.25;;;23.14;65.97
5609;BME280;2826;51.354;9.588;2023-09-18T06:12:26;97227.41;;;23.18;65.92
5609;BME280;2826;51.354;9.588;2023-09-18T06:14:53;97216.66;;;23.20;65.87
5609;BME280;2826;51.354;9.588;2023-09-18T06:17:21;97217.50;;;23.20;65.55
5609;BME280;2826;51.354;9.588;2023-09-18T06:19:48;97218.16;;;23.22;65.49
5609;BME280;2826;51.354;9.588;2023-09-18T06:22:16;97220.47;;;23.26;65.44
5609;BME280;2826;51.354;9.588;2023-09-18T06:24:43;97208.72;;;23.28;65.55
5609;BME280;2826;51.354;9.588;2023-09-18T06:27:09;97209.38;;;23.30;65.45
5609;BME280;2826;51.354;9.588;2023-09-18T06:29:37;97204.44;;;23.27;65.33
5609;BME280;2826;51.354;9.588;2023-09-18T06:32:04;97204.75;;;23.32;65.53
5609;BME280;2826;51.354;9.588;2023-09-18T06:34:33;97214.22;;;23.35;65.16
5609;BME280;2826;51.354;9.588;2023-09-18T06:37:00;97211.41;;;23.45;65.16
5609;BME280;2826;51.354;9.588;2023-09-18T06:39:26;97229.41;;;23.49;64.99
5609;BME280;2826;51.354;9.588;2023-09-18T06:41:53;97241.47;;;23.52;65.14
5609;BME280;2826;51.354;9.588;2023-09-18T06:44:19;97252.38;;;23.57;64.94
5609;BME280;2826;51.354;9.588;2023-09-18T06:46:48;97253.22;;;23.66;64.87
5609;BME280;2826;51.354;9.588;2023-09-18T06:49:15;97267.44;;;23.73;64.72
5609;BME280;2826;51.354;9.588;2023-09-18T06:51:43;97268.41;;;23.81;64.09
5609;BME280;2826;51.354;9.588;2023-09-18T06:54:10;97279.31;;;23.86;63.63
5609;BME280;2826;51.354;9.588;2023-09-18T06:56:36;97270.19;;;23.88;63.79
5609;BME280;2826;51.354;9.588;2023-09-18T06:59:03;97259.81;;;23.87;63.72
5609;BME280;2826;51.354;9.588;2023-09-18T07:01:30;97258.63;;;23.90;63.55
5609;BME280;2826;51.354;9.588;2023-09-18T07:03:56;97267.38;;;23.90;63.61
5609;BME280;2826;51.354;9.588;2023-09-18T07:06:25;97276.34;;;23.89;64.14
5609;BME280;2826;51.354;9.588;2023-09-18T07:08:53;97273.34;;;23.92;63.85
5609;BME280;2826;51.354;9.588;2023-09-18T07:11:19;97278.97;;;23.97;63.95
5609;BME280;2826;51.354;9.588;2023-09-18T07:13:46;97285.59;;;24.01;64.27
5609;BME280;2826;51.354;9.588;2023-09-18T07:16:12;97283.59;;;23.95;64.86
5609;BME280;2826;51.354;9.588;2023-09-18T07:18:40;97284.59;;;23.94;64.88
5609;BME280;2826;51.354;9.588;2023-09-18T07:21:06;97274.19;;;23.84;65.17
5609;BME280;2826;51.354;9.588;2023-09-18T07:23:33;97268.56;;;23.79;66.00
5609;BME280;2826;51.354;9.588;2023-09-18T07:26:03;97267.41;;;23.82;65.48
5609;BME280;2826;51.354;9.588;2023-09-18T07:28:31;97270.41;;;23.79;65.49
5609;BME280;2826;51.354;9.588;2023-09-18T07:31:05;97284.81;;;23.76;65.73
5609;BME280;2826;51.354;9.588;2023-09-18T07:33:32;97289.09;;;23.77;65.80
5609;BME280;2826;51.354;9.588;2023-09-18T07:35:59;97284.13;;;23.74;66.11
5609;BME280;2826;51.354;9.588;2023-09-18T07:38:26;97288.09;;;23.78;66.20
5609;BME280;2826;51.354;9.588;2023-09-18T07:40:52;97289.25;;;23.75;66.37
5609;BME280;2826;51.354;9.588;2023-09-18T07:43:21;97285.78;;;23.75;66.44
5609;BME280;2826;51.354;9.588;2023-09-18T07:45:49;97290.25;;;23.74;67.18
5609;BME280;2826;51.354;9.588;2023-09-18T07:48:15;97283.81;;;23.77;67.26
5609;BME280;2826;51.354;9.588;2023-09-18T07:50:45;97286.44;;;23.77;66.84
5609;BME280;2826;51.354;9.588;2023-09-18T07:53:13;97284.59;;;23.78;66.77
5609;BME280;2826;51.354;9.588;2023-09-18T07:55:39;97276.66;;;23.78;66.41
5609;BME280;2826;51.354;9.588;2023-09-18T07:58:06;97276.88;;;23.76;66.37
5609;BME280;2826;51.354;9.588;2023-09-18T08:00:35;97286.44;;;23.77;66.24
5609;BME280;2826;51.354;9.588;2023-09-18T08:03:02;97296.72;;;23.80;66.36
5609;BME280;2826;51.354;9.588;2023-09-18T08:05:28;97295.19;;;23.86;66.84
5609;BME280;2826;51.354;9.588;2023-09-18T08:07:57;97298.50;;;23.96;66.25
5609;BME280;2826;51.354;9.588;2023-09-18T08:10:24;97298.66;;;23.95;65.81
5609;BME280;2826;51.354;9.588;2023-09-18T08:12:51;97317.00;;;24.05;66.08
5609;BME280;2826;51.354;9.588;2023-09-18T08:15:18;97316.84;;;24.06;66.02
5609;BME280;2826;51.354;9.588;2023-09-18T08:17:47;97330.63;;;24.10;65.93
5609;BME280;2826;51.354;9.588;2023-09-18T08:20:14;97290.06;;;23.84;65.61
5609;BME280;2826;51.354;9.588;2023-09-18T08:22:41;97328.28;;;24.15;65.45
5609;BME280;2826;51.354;9.588;2023-09-18T08:25:08;97325.63;;;24.15;64.90
5609;BME280;2826;51.354;9.588;2023-09-18T08:27:36;97322.31;;;24.21;65.03
5609;BME280;2826;51.354;9.588;2023-09-18T08:30:06;97329.75;;;24.26;64.74
5609;BME280;2826;51.354;9.588;2023-09-18T08:32:33;97346.13;;;24.30;64.69
5609;BME280;2826;51.354;9.588;2023-09-18T08:35:01;97338.66;;;24.33;64.77
5609;BME280;2826;51.354;9.588;2023-09-18T08:37:28;97329.75;;;24.34;64.61
5609;BME280;2826;51.354;9.588;2023-09-18T08:39:55;97348.75;;;24.46;64.60
5609;BME280;2826;51.354;9.588;2023-09-18T08:42:22;97349.22;;;24.50;64.76
5609;BME280;2826;51.354;9.588;2023-09-18T08:44:51;97353.03;;;24.47;64.36
5609;BME280;2826;51.354;9.588;2023-09-18T08:47:18;97354.38;;;24.43;64.06
5609;BME280;2826;51.354;9.588;2023-09-18T08:49:46;97354.03;;;24.46;63.59
5609;BME280;2826;51.354;9.588;2023-09-18T08:52:16;97357.69;;;24.45;63.59
5609;BME280;2826;51.354;9.588;2023-09-18T08:54:43;97372.13;;;24.34;62.74
5609;BME280;2826;51.354;9.588;2023-09-18T08:57:11;97368.94;;;24.39;62.95
5609;BME280;2826;51.354;9.588;2023-09-18T08:59:39;97374.78;;;24.26;62.86
5609;BME280;2826;51.354;9.588;2023-09-18T09:02:06;97369.31;;;23.94;62.67
5609;BME280;2826;51.354;9.588;2023-09-18T09:04:37;97358.72;;;24.02;62.46
5609;BME280;2826;51.354;9.588;2023-09-18T09:07:04;97348.44;;;23.99;62.73
5609;BME280;2826;51.354;9.588;2023-09-18T09:09:32;97350.47;;;23.97;62.77
5609;BME280;2826;51.354;9.588;2023-09-18T09:11:59;97347.63;;;24.07;62.80
5609;BME280;2826;51.354;9.588;2023-09-18T09:14:25;97351.78;;;23.93;62.51
5609;BME280;2826;51.354;9.588;2023-09-18T09:16:55;97356.56;;;24.14;62.41
5609;BME280;2826;51.354;9.588;2023-09-18T09:19:29;97362.88;;;24.13;62.13
5609;BME280;2826;51.354;9.588;2023-09-18T09:21:56;97360.72;;;24.17;62.61
5609;BME280;2826;51.354;9.588;2023-09-18T09:24:37;97346.81;;;24.23;62.02
5609;BME280;2826;51.354;9.588;2023-09-18T09:27:04;97355.56;;;24.24;61.84
5609;BME280;2826;51.354;9.588;2023-09-18T09:29:31;97351.09;;;24.33;61.78
5609;BME280;2826;51.354;9.588;2023-09-18T09:32:11;97344.91;;;24.49;61.05
5609;BME280;2826;51.354;9.588;2023-09-18T09:34:38;97343.31;;;24.79;60.13
5609;BME280;2826;51.354;9.588;2023-09-18T09:37:05;97352.69;;;24.99;59.08
5609;BME280;2826;51.354;9.588;2023-09-18T09:39:31;97351.94;;;25.13;58.95
5609;BME280;2826;51.354;9.588;2023-09-18T09:42:01;97353.47;;;25.08;58.96
5609;BME280;2826;51.354;9.588;2023-09-18T09:44:31;97341.13;;;24.91;59.13
5609;BME280;2826;51.354;9.588;2023-09-18T09:46:59;97342.31;;;24.89;59.24
5609;BME280;2826;51.354;9.588;2023-09-18T09:49:26;97353.63;;;24.66;59.69
5609;BME280;2826;51.354;9.588;2023-09-18T09:51:54;97340.38;;;24.66;59.95
5609;BME280;2826;51.354;9.588;2023-09-18T09:54:31;97337.25;;;24.62;60.37
5609;BME280;2826;51.354;9.588;2023-09-18T09:57:03;97334.16;;;24.50;60.76
5609;BME280;2826;51.354;9.588;2023-09-18T09:59:30;97331.97;;;24.62;60.71
5609;BME280;2826;51.354;9.588;2023-09-18T10:01:58;97337.91;;;24.64;60.73
5609;BME280;2826;51.354;9.588;2023-09-18T10:04:27;97338.72;;;24.73;60.52
5609;BME280;2826;51.354;9.588;2023-09-18T10:06:58;97344.34;;;24.70;60.29
5609;BME280;2826;51.354;9.588;2023-09-18T10:09:26;97341.25;;;24.98;60.41
5609;BME280;2826;51.354;9.588;2023-09-18T10:11:56;97339.41;;;25.07;59.86
5609;BME280;2826;51.354;9.588;2023-09-18T10:14:29;97352.69;;;24.99;60.10
5609;BME280;2826;51.354;9.588;2023-09-18T10:17:05;97345.00;;;25.12;59.72
5609;BME280;2826;51.354;9.588;2023-09-18T10:19:40;97339.78;;;24.96;59.62
5609;BME280;2826;51.354;9.588;2023-09-18T10:22:17;97338.16;;;24.86;59.72
5609;BME280;2826;51.354;9.588;2023-09-18T10:24:50;97337.97;;;24.96;59.79
5609;BME280;2826;51.354;9.588;2023-09-18T10:27:18;97342.31;;;24.80;60.43
5609;BME280;2826;51.354;9.588;2023-09-18T10:29:49;97355.84;;;24.94;60.23
5609;BME280;2826;51.354;9.588;2023-09-18T10:32:17;97373.88;;;25.07;60.10
5609;BME280;2826;51.354;9.588;2023-09-18T10:34:45;97365.22;;;25.13;59.43
5609;BME280;2826;51.354;9.588;2023-09-18T10:37:15;97353.25;;;25.17;59.60
5609;BME280;2826;51.354;9.588;2023-09-18T10:39:42;97362.31;;;25.31;58.89
5609;BME280;2826;51.354;9.588;2023-09-18T10:42:10;97356.88;;;25.25;58.52
5609;BME280;2826;51.354;9.588;2023-09-18T10:44:39;97369.88;;;25.11;59.27
5609;BME280;2826;51.354;9.588;2023-09-18T10:47:09;97366.53;;;25.17;59.57
5609;BME280;2826;51.354;9.588;2023-09-18T10:49:36;97380.00;;;25.08;59.89
5609;BME280;2826;51.354;9.588;2023-09-18T10:52:04;97392.09;;;25.10;59.79
5609;BME280;2826;51.354;9.588;2023-09-18T10:54:32;97388.75;;;25.16;59.30
5609;BME280;2826;51.354;9.588;2023-09-18T10:56:59;97373.59;;;25.25;59.00
5609;BME280;2826;51.354;9.588;2023-09-18T10:59:27;97342.13;;;25.22;58.80
5609;BME280;2826;51.354;9.588;2023-09-18T11:01:55;97367.03;;;25.21;58.57
5609;BME280;2826;51.354;9.588;2023-09-18T11:04:23;97361.97;;;25.03;59.37
5609;BME280;2826;51.354;9.588;2023-09-18T11:07:02;97370.16;;;24.85;59.42
5609;BME280;2826;51.354;9.588;2023-09-18T11:09:41;97364.19;;;24.83;59.40
5609;BME280;2826;51.354;9.588;2023-09-18T11:12:09;97372.63;;;24.86;59.86
5609;BME280;2826;51.354;9.588;2023-09-18T11:14:44;97375.78;;;24.82;59.48
5609;BME280;2826;51.354;9.588;2023-09-18T11:17:31;97322.41;;;24.45;59.55
5609;BME280;2826;51.354;9.588;2023-09-18T11:20:08;97373.03;;;24.66;59.79
5609;BME280;2826;51.354;9.588;2023-09-18T11:22:38;97354.13;;;24.70;59.98
5609;BME280;2826;51.354;9.588;2023-09-18T11:25:36;97365.22;;;24.73;60.42
5609;BME280;2826;51.354;9.588;2023-09-18T11:28:04;97372.16;;;24.74;60.47
5609;BME280;2826;51.354;9.588;2023-09-18T11:30:33;97365.09;;;24.58;59.84
5609;BME280;2826;51.354;9.588;2023-09-18T11:33:02;97394.03;;;24.76;59.72
5609;BME280;2826;51.354;9.588;2023-09-18T11:35:31;97386.06;;;24.85;59.71
5609;BME280;2826;51.354;9.588;2023-09-18T11:38:05;97395.31;;;24.80;59.67
5609;BME280;2826;51.354;9.588;2023-09-18T11:40:34;97403.28;;;24.80;59.68
5609;BME280;2826;51.354;9.588;2023-09-18T11:43:21;97401.16;;;24.76;60.01
5609;BME280;2826;51.354;9.588;2023-09-18T11:45:51;97394.69;;;24.78;59.70
5609;BME280;2826;51.354;9.588;2023-09-18T11:48:19;97398.81;;;24.81;59.46
5609;BME280;2826;51.354;9.588;2023-09-18T11:50:47;97389.53;;;24.77;59.63
5609;BME280;2826;51.354;9.588;2023-09-18T11:53:16;97374.13;;;24.80;59.54
5609;BME280;2826;51.354;9.588;2023-09-18T11:55:44;97383.06;;;24.88;59.86
5609;BME280;2826;51.354;9.588;2023-09-18T11:58:11;97388.38;;;24.88;59.04
5609;BME280;2826;51.354;9.588;2023-09-18T12:00:39;97384.56;;;24.82;59.68
5609;BME280;2826;51.354;9.588;2023-09-18T12:03:19;97362.69;;;24.80;59.04
5609;BME280;2826;51.354;9.588;2023-09-18T12:05:54;97381.75;;;24.92;59.42
5609;BME280;2826;51.354;9.588;2023-09-18T12:08:23;97375.13;;;24.79;58.57
5609;BME280;2826;51.354;9.588;2023-09-18T12:10:51;97381.09;;;24.82;58.26
5609;BME280;2826;51.354;9.588;2023-09-18T12:13:18;97390.72;;;24.74;58.93
5609;BME280;2826;51.354;9.588;2023-09-18T12:15:46;97397.22;;;24.63;58.82
5609;BME280;2826;51.354;9.588;2023-09-18T12:18:14;97397.66;;;24.75;58.87
5609;BME280;2826;51.354;9.588;2023-09-18T12:20:48;97379.34;;;24.57;58.69
5609;BME280;2826;51.354;9.588;2023-09-18T12:23:16;97389.72;;;24.75;58.46
5609;BME280;2826;51.354;9.588;2023-09-18T12:25:46;97383.25;;;24.86;58.45
5609;BME280;2826;51.354;9.588;2023-09-18T12:28:14;97380.41;;;24.79;58.05
5609;BME280;2826;51.354;9.588;2023-09-18T12:30:42;97369.69;;;24.73;57.80
5609;BME280;2826;51.354;9.588;2023-09-18T12:33:09;97383.25;;;24.78;58.06
5609;BME280;2826;51.354;9.588;2023-09-18T12:35:37;97382.91;;;24.81;57.43
5609;BME280;2826;51.354;9.588;2023-09-18T12:38:13;97386.03;;;24.93;57.17
5609;BME280;2826;51.354;9.588;2023-09-18T12:40:41;97382.22;;;24.96;57.23
5609;BME280;2826;51.354;9.588;2023-09-18T12:43:10;97373.78;;;24.92;57.11
5609;BME280;2826;51.354;9.588;2023-09-18T12:45:38;97377.59;;;24.89;56.92
5609;BME280;2826;51.354;9.588;2023-09-18T12:48:06;97375.97;;;24.80;56.93
5609;BME280;2826;51.354;9.588;2023-09-18T12:50:33;97378.97;;;24.69;56.94
5609;BME280;2826;51.354;9.588;2023-09-18T12:53:07;97386.91;;;24.69;57.29
5609;BME280;2826;51.354;9.588;2023-09-18T12:55:34;97396.06;;;24.58;57.87
5609;BME280;2826;51.354;9.588;2023-09-18T12:58:03;97393.25;;;24.51;58.30
5609;BME280;2826;51.354;9.588;2023-09-18T13:00:34;97391.13;;;24.46;58.34
5609;BME280;2826;51.354;9.588;2023-09-18T13:03:01;97379.06;;;24.35;58.66
5609;BME280;2826;51.354;9.588;2023-09-18T13:05:30;97363.34;;;24.25;58.59
5609;BME280;2826;51.354;9.588;2023-09-18T13:08:02;97383.81;;;24.48;58.86
5609;BME280;2826;51.354;9.588;2023-09-18T13:10:29;97397.38;;;24.53;58.36
5609;BME280;2826;51.354;9.588;2023-09-18T13:13:15;97382.66;;;24.51;58.39
5609;BME280;2826;51.354;9.588;2023-09-18T13:15:42;97378.03;;;24.53;58.08
5609;BME280;2826;51.354;9.588;2023-09-18T13:18:11;97347.09;;;24.45;57.61
5609;BME280;2826;51.354;9.588;2023-09-18T13:20:38;97386.25;;;24.75;57.55
5609;BME280;2826;51.354;9.588;2023-09-18T13:23:06;97387.09;;;24.67;57.63
5609;BME280;2826;51.354;9.588;2023-09-18T13:25:34;97387.28;;;24.65;57.77
5609;BME280;2826;51.354;9.588;2023-09-18T13:28:04;97387.91;;;24.67;57.73